createdAt,value
2018-08-11T00:02:07.088Z,8.47
2018-08-11T00:04:36.949Z,8.27
2018-08-11T00:07:06.981Z,21.67
2018-08-11T00:09:37.052Z,44.20
2018-08-11T00:12:06.926Z,42.23
2018-08-11T00:14:36.925Z,21.67
2018-08-11T00:17:06.665Z,29.07
2018-08-11T00:19:36.474Z,10.83
2018-08-11T00:22:06.611Z,7.20
2018-08-11T00:24:36.377Z,10.37
2018-08-11T00:27:06.413Z,21.00
2018-08-11T00:29:36.168Z,32.73
2018-08-11T00:32:06.484Z,38.43
2018-08-11T00:34:36.456Z,47.83
2018-08-11T00:37:06.614Z,39.17
2018-08-11T00:39:36.526Z,60.70
2018-08-11T00:42:06.430Z,77.50
2018-08-11T00:44:36.365Z,82.77
2018-08-11T00:47:06.181Z,59.60
2018-08-11T00:49:36.227Z,35.23
2018-08-11T00:52:06.412Z,37.57
2018-08-11T00:54:36.546Z,21.77
2018-08-11T00:57:06.562Z,35.20
2018-08-11T00:59:36.382Z,52.93
2018-08-11T01:02:06.598Z,56.33
2018-08-11T01:04:36.344Z,75.07
2018-08-11T01:07:06.385Z,84.20
2018-08-11T01:09:36.125Z,54.97
2018-08-11T01:12:06.041Z,59.17
2018-08-11T01:14:35.900Z,45.70
2018-08-11T01:17:05.617Z,70.67
2018-08-11T01:19:35.690Z,46.63
2018-08-11T01:22:05.809Z,54.97
2018-08-11T01:24:35.472Z,47.83
2018-08-11T01:27:05.210Z,37.47
2018-08-11T01:29:35.064Z,62.20
2018-08-11T01:32:05.078Z,44.07
2018-08-11T01:34:34.842Z,49.17
2018-08-11T01:37:04.497Z,56.57
2018-08-11T01:39:34.225Z,42.20
2018-08-11T01:42:04.004Z,34.47
2018-08-11T01:44:33.824Z,33.27
2018-08-11T01:47:03.654Z,54.13
2018-08-11T01:49:33.450Z,63.57
2018-08-11T01:52:03.193Z,86.77
2018-08-11T01:54:33.368Z,78.73
2018-08-11T01:57:03.060Z,138.97
2018-08-11T01:59:32.686Z,132.10
2018-08-11T02:02:02.477Z,136.70
2018-08-11T02:04:32.144Z,92.47
2018-08-11T02:07:01.941Z,108.63
2018-08-11T02:09:32.036Z,103.50
2018-08-11T02:12:01.794Z,78.63
2018-08-11T02:14:31.588Z,140.00
2018-08-11T02:17:01.156Z,120.07
2018-08-11T02:19:31.019Z,94.97
2018-08-11T02:22:00.712Z,46.13
2018-08-11T02:24:30.403Z,24.20
2018-08-11T02:27:00.363Z,24.73
2018-08-11T02:29:30.204Z,16.23
2018-08-11T02:32:00.046Z,14.23
2018-08-11T02:34:29.802Z,13.73
2018-08-11T02:36:59.829Z,15.13
2018-08-11T02:39:29.509Z,11.93
2018-08-11T02:41:59.141Z,15.90
2018-08-11T02:44:28.736Z,13.63
2018-08-11T02:46:58.447Z,14.47
2018-08-11T02:49:28.433Z,15.07
2018-08-11T02:51:58.099Z,19.70
2018-08-11T02:54:28.144Z,16.63
2018-08-11T02:56:57.866Z,22.70
2018-08-11T02:59:27.536Z,43.53
2018-08-11T03:01:57.212Z,26.13
2018-08-11T03:04:26.905Z,22.87
2018-08-11T03:06:56.673Z,31.50
2018-08-11T03:09:26.406Z,24.13
2018-08-11T03:11:55.998Z,22.30
2018-08-11T03:14:25.722Z,19.13
2018-08-11T03:16:55.425Z,64.87
2018-08-11T03:19:25.061Z,57.57
2018-08-11T03:21:54.926Z,94.80
2018-08-11T03:24:24.654Z,86.63
2018-08-11T03:26:54.251Z,32.47
2018-08-11T03:29:24.236Z,21.80
2018-08-11T03:31:53.964Z,19.97
2018-08-11T03:34:23.756Z,20.53
2018-08-11T03:36:53.425Z,14.17
2018-08-11T03:39:23.104Z,18.60
2018-08-11T03:41:52.894Z,19.73
2018-08-11T03:44:22.534Z,15.27
2018-08-11T03:46:52.263Z,16.97
2018-08-11T03:49:21.929Z,16.93
2018-08-11T03:51:51.753Z,21.43
2018-08-11T03:54:21.340Z,15.10
2018-08-11T03:56:50.988Z,11.93
2018-08-11T03:59:22.405Z,15.93
2018-08-11T04:01:52.038Z,10.63
2018-08-11T04:04:21.832Z,18.50
2018-08-11T04:06:51.696Z,12.50
2018-08-11T04:09:21.296Z,13.93
2018-08-11T04:11:51.232Z,16.17
2018-08-11T04:14:20.934Z,13.27
2018-08-11T04:16:50.620Z,10.70
2018-08-11T04:19:20.376Z,13.90
2018-08-11T04:21:50.122Z,13.20
2018-08-11T04:24:20.055Z,11.20
2018-08-11T04:26:50.179Z,11.57
2018-08-11T04:29:20.015Z,12.63
2018-08-11T04:31:50.049Z,12.70
2018-08-11T04:34:19.809Z,7.97
2018-08-11T04:36:49.610Z,9.47
2018-08-11T04:39:19.573Z,11.37
2018-08-11T04:41:49.332Z,8.33
2018-08-11T04:44:19.119Z,10.67
2018-08-11T04:46:49.096Z,7.93
2018-08-11T04:49:18.848Z,13.77
2018-08-11T04:51:48.587Z,15.43
2018-08-11T04:54:18.228Z,12.33
2018-08-11T04:56:48.142Z,8.80
2018-08-11T04:59:17.736Z,16.97
2018-08-11T05:01:47.517Z,11.30
2018-08-11T05:04:17.263Z,17.43
2018-08-11T05:06:47.040Z,10.53
2018-08-11T05:09:16.688Z,23.87
2018-08-11T05:11:46.296Z,33.77
2018-08-11T05:14:16.020Z,41.23
2018-08-11T05:16:45.774Z,48.97
2018-08-11T05:19:15.477Z,60.37
2018-08-11T05:21:45.239Z,42.37
2018-08-11T05:24:15.198Z,20.43
2018-08-11T05:26:45.122Z,11.37
2018-08-11T05:29:15.222Z,12.67
2018-08-11T05:31:44.983Z,25.10
2018-08-11T05:34:14.646Z,9.43
2018-08-11T05:36:44.534Z,20.10
2018-08-11T05:39:15.013Z,20.00
2018-08-11T05:41:44.819Z,12.90
2018-08-11T05:44:14.412Z,17.43
2018-08-11T05:46:44.643Z,9.17
2018-08-11T05:49:14.509Z,27.43
2018-08-11T05:51:48.583Z,32.80
2018-08-11T05:54:18.355Z,13.03
2018-08-11T05:56:48.068Z,16.30
2018-08-11T05:59:17.774Z,20.23
2018-08-11T06:01:47.937Z,16.20
2018-08-11T06:04:17.494Z,21.15
2018-08-11T06:06:47.274Z,12.50
2018-08-11T06:09:16.926Z,11.63
2018-08-11T06:11:46.632Z,24.35
2018-08-11T06:14:16.579Z,33.97
2018-08-11T06:16:46.218Z,22.53
2018-08-11T06:19:15.954Z,13.97
2018-08-11T06:21:45.679Z,9.33
2018-08-11T06:24:15.460Z,11.10
2018-08-11T06:26:45.273Z,10.80
2018-08-11T06:29:15.091Z,4.53
2018-08-11T06:31:44.908Z,6.13
2018-08-11T06:34:14.860Z,13.03
2018-08-11T06:36:44.564Z,17.33
2018-08-11T06:39:15.595Z,54.07
2018-08-11T06:41:45.368Z,37.10
2018-08-11T06:44:15.085Z,45.93
2018-08-11T06:46:45.060Z,34.40
2018-08-11T06:49:14.824Z,31.10
2018-08-11T06:51:44.694Z,13.93
2018-08-11T06:54:14.724Z,7.17
2018-08-11T06:56:44.486Z,18.30
2018-08-11T06:59:14.160Z,28.55
2018-08-11T07:01:43.814Z,20.03
2018-08-11T07:04:13.755Z,28.77
2018-08-11T07:06:43.503Z,12.90
2018-08-11T07:09:13.300Z,10.33
2018-08-11T07:11:42.970Z,7.92
2018-08-11T07:14:12.677Z,7.67
2018-08-11T07:16:42.380Z,6.77
2018-08-11T07:19:12.292Z,26.70
2018-08-11T07:21:42.058Z,8.85
2018-08-11T07:24:11.916Z,7.27
2018-08-11T07:26:41.706Z,6.83
2018-08-11T07:29:11.520Z,16.23
2018-08-11T07:31:41.318Z,25.47
2018-08-11T07:34:11.145Z,15.50
2018-08-11T07:36:40.900Z,11.13
2018-08-11T07:39:11.005Z,14.20
2018-08-11T07:41:41.171Z,14.90
2018-08-11T07:44:11.060Z,16.17
2018-08-11T07:46:40.806Z,39.60
2018-08-11T07:49:10.489Z,23.37
2018-08-11T07:51:40.167Z,8.90
2018-08-11T07:54:10.332Z,11.07
2018-08-11T07:56:39.999Z,25.33
2018-08-11T07:59:09.944Z,10.33
2018-08-11T08:01:40.380Z,23.90
2018-08-11T08:04:10.092Z,31.53
2018-08-11T08:06:39.887Z,27.50
2018-08-11T08:09:12.812Z,13.67
2018-08-11T08:11:43.097Z,16.95
2018-08-11T08:14:13.418Z,21.55
2018-08-11T08:16:43.175Z,3.93
2018-08-11T08:19:12.983Z,16.83
2018-08-11T08:21:42.688Z,10.35
2018-08-11T08:24:12.360Z,17.13
2018-08-11T08:26:42.241Z,30.20
2018-08-11T08:29:12.000Z,22.25
2018-08-11T08:31:41.661Z,6.87
2018-08-11T08:34:11.431Z,15.27
2018-08-11T08:36:41.148Z,5.47
2018-08-11T08:39:12.546Z,22.97
2018-08-11T08:41:42.711Z,27.27
2018-08-11T08:44:12.595Z,6.23
2018-08-11T08:46:42.626Z,8.70
2018-08-11T08:49:12.986Z,7.58
2018-08-11T08:51:42.789Z,10.90
2018-08-11T08:54:12.501Z,12.63
2018-08-11T08:56:42.243Z,12.20
2018-08-11T09:01:42.191Z,5.90
2018-08-11T09:04:11.979Z,9.10
2018-08-11T09:06:41.740Z,8.65
2018-08-11T09:09:12.455Z,5.77
2018-08-11T09:11:43.434Z,5.97
2018-08-11T09:14:13.550Z,5.07
2018-08-11T09:16:43.486Z,9.95
2018-08-11T09:19:13.117Z,5.30
2018-08-11T09:21:43.582Z,11.07
2018-08-11T09:24:14.036Z,5.17
2018-08-11T09:26:43.771Z,12.17
2018-08-11T09:29:14.432Z,13.33
2018-08-11T09:31:44.517Z,8.70
2018-08-11T09:34:14.135Z,4.27
2018-08-11T09:36:45.649Z,9.07
2018-08-11T09:39:15.403Z,6.83
2018-08-11T09:41:46.432Z,11.73
2018-08-11T09:44:17.149Z,13.43
2018-08-11T09:46:47.844Z,8.03
2018-08-11T09:49:18.061Z,20.70
2018-08-11T09:51:48.315Z,10.57
2018-08-11T09:54:19.546Z,13.70
2018-08-11T09:56:49.573Z,11.00
2018-08-11T09:59:19.546Z,10.03
2018-08-11T10:01:53.226Z,4.90
2018-08-11T10:04:22.959Z,12.77
2018-08-11T10:06:52.597Z,5.03
2018-08-11T10:09:22.459Z,11.23
2018-08-11T10:11:52.327Z,10.00
2018-08-11T10:14:21.980Z,6.83
2018-08-11T10:16:51.768Z,19.47
2018-08-11T10:19:21.447Z,8.17
2018-08-11T10:21:51.019Z,9.53
2018-08-11T10:24:20.696Z,7.43
2018-08-11T10:26:51.371Z,11.70
2018-08-11T10:29:21.294Z,11.27
2018-08-11T10:31:50.898Z,5.67
2018-08-11T10:34:20.552Z,7.33
2018-08-11T10:36:50.162Z,2.43
2018-08-11T10:39:20.281Z,12.93
2018-08-11T10:41:50.201Z,10.27
2018-08-11T10:44:19.782Z,10.50
2018-08-11T10:46:49.440Z,3.87
2018-08-11T10:49:19.136Z,4.42
2018-08-11T10:51:49.001Z,15.07
2018-08-11T10:54:18.672Z,7.43
2018-08-11T10:56:48.443Z,6.70
2018-08-11T10:59:18.740Z,10.33
2018-08-11T11:01:48.448Z,24.50
2018-08-11T11:04:18.304Z,7.87
2018-08-11T11:06:48.022Z,7.37
2018-08-11T11:09:17.827Z,4.70
2018-08-11T11:11:47.710Z,19.00
2018-08-11T11:14:17.850Z,20.33
2018-08-11T11:16:47.843Z,26.47
2018-08-11T11:19:18.371Z,6.73
2018-08-11T11:21:48.528Z,10.80
2018-08-11T11:24:18.384Z,8.20
2018-08-11T11:26:48.112Z,9.33
2018-08-11T11:29:18.243Z,6.17
2018-08-11T11:31:48.312Z,8.67
2018-08-11T11:34:18.081Z,7.33
2018-08-11T11:36:47.726Z,15.50
2018-08-11T11:39:17.242Z,6.67
2018-08-11T11:41:46.847Z,6.80
2018-08-11T11:44:16.561Z,13.90
2018-08-11T11:46:46.299Z,8.20
2018-08-11T11:49:15.909Z,7.90
2018-08-11T11:51:45.751Z,13.57
2018-08-11T11:54:15.712Z,147.07
2018-08-11T11:56:45.281Z,13.37
2018-08-11T11:59:15.165Z,8.17
2018-08-11T12:01:45.029Z,9.60
2018-08-11T12:04:14.964Z,9.75
2018-08-11T12:06:45.918Z,10.55
2018-08-11T12:09:15.932Z,10.50
2018-08-11T12:11:46.053Z,20.77
2018-08-11T12:14:22.426Z,13.97
2018-08-11T12:16:52.113Z,14.67
2018-08-11T12:19:22.879Z,14.97
2018-08-11T12:21:53.976Z,15.20
2018-08-11T12:24:24.432Z,11.37
2018-08-11T12:26:55.102Z,5.13
2018-08-11T12:29:25.216Z,9.87
2018-08-11T12:31:55.185Z,8.77
2018-08-11T12:34:25.813Z,8.70
2018-08-11T12:36:56.077Z,4.93
2018-08-11T12:39:26.093Z,10.77
2018-08-11T12:41:56.119Z,4.90
2018-08-11T12:44:26.263Z,6.37
2018-08-11T12:46:56.360Z,6.58
2018-08-11T12:49:26.037Z,9.73
2018-08-11T12:51:56.279Z,6.60
2018-08-11T12:54:26.452Z,14.30
2018-08-11T12:56:56.573Z,8.90
2018-08-11T12:59:26.674Z,6.60
2018-08-11T13:01:56.356Z,9.10
2018-08-11T13:04:26.395Z,11.23
2018-08-11T13:06:56.471Z,6.80
2018-08-11T13:09:28.099Z,8.50
2018-08-11T13:11:58.250Z,11.73
2018-08-11T13:14:27.854Z,8.97
2018-08-11T13:16:57.576Z,7.40
2018-08-11T13:19:27.229Z,10.03
2018-08-11T13:21:58.914Z,10.50
2018-08-11T13:24:29.489Z,17.47
2018-08-11T13:27:00.089Z,21.40
2018-08-11T13:29:30.053Z,17.80
2018-08-11T13:32:00.308Z,15.03
2018-08-11T13:34:30.467Z,14.23
2018-08-11T13:37:00.549Z,10.63
2018-08-11T13:39:31.262Z,11.08
2018-08-11T13:42:01.338Z,8.18
2018-08-11T13:44:31.644Z,10.85
2018-08-11T13:47:02.587Z,12.77
2018-08-11T13:49:32.638Z,71.93
2018-08-11T13:52:02.365Z,16.05
2018-08-11T13:54:32.393Z,7.43
2018-08-11T13:57:02.061Z,7.37
2018-08-11T13:59:32.092Z,5.17
2018-08-11T14:02:02.035Z,9.50
2018-08-11T14:04:32.558Z,12.67
2018-08-11T14:07:02.208Z,9.93
2018-08-11T14:09:31.970Z,9.30
2018-08-11T14:12:01.997Z,10.57
2018-08-11T14:14:31.949Z,11.37
2018-08-11T14:17:01.866Z,13.07
2018-08-11T14:19:31.590Z,3.23
2018-08-11T14:22:01.317Z,10.50
2018-08-11T14:24:32.211Z,12.73
2018-08-11T14:27:02.313Z,6.47
2018-08-11T14:29:31.861Z,8.43
2018-08-11T14:32:01.796Z,8.20
2018-08-11T14:34:31.725Z,7.97
2018-08-11T14:37:01.594Z,5.93
2018-08-11T14:39:31.273Z,15.07
2018-08-11T14:42:01.074Z,9.57
2018-08-11T14:44:30.901Z,14.53
2018-08-11T14:47:00.698Z,9.07
2018-08-11T14:49:30.511Z,11.37
2018-08-11T14:52:06.511Z,11.47
2018-08-11T14:54:36.661Z,10.30
2018-08-11T14:57:06.354Z,9.53
2018-08-11T14:59:36.204Z,13.25
2018-08-11T15:02:05.937Z,14.58
2018-08-11T15:04:35.586Z,7.17
2018-08-11T15:07:05.310Z,12.57
2018-08-11T15:09:35.008Z,7.40
2018-08-11T15:12:04.841Z,16.27
2018-08-11T15:14:34.459Z,12.43
2018-08-11T15:17:04.380Z,8.20
2018-08-11T15:19:34.196Z,8.13
2018-08-11T15:22:03.884Z,8.83
2018-08-11T15:24:33.529Z,10.50
2018-08-11T15:27:03.151Z,6.58
2018-08-11T15:29:32.860Z,7.25
2018-08-11T15:32:02.769Z,9.80
2018-08-11T15:34:32.578Z,12.83
2018-08-11T15:37:02.486Z,16.80
2018-08-11T15:39:32.128Z,11.93
2018-08-11T15:42:02.078Z,11.50
2018-08-11T15:44:31.714Z,11.87
2018-08-11T15:47:01.275Z,10.20
2018-08-11T15:49:31.237Z,16.87
2018-08-11T15:52:00.978Z,9.30
2018-08-11T15:54:30.759Z,12.10
2018-08-11T15:57:00.489Z,17.05
2018-08-11T15:59:30.017Z,8.57
2018-08-11T16:01:59.801Z,7.58
2018-08-11T16:04:29.638Z,7.97
2018-08-11T16:06:59.384Z,16.30
2018-08-11T16:09:29.094Z,11.47
2018-08-11T16:11:59.054Z,7.35
2018-08-11T16:14:28.648Z,8.38
2018-08-11T16:16:58.186Z,3.80
2018-08-11T16:19:27.997Z,9.83
2018-08-11T16:21:57.631Z,15.87
2018-08-11T16:24:27.448Z,9.70
2018-08-11T16:26:57.426Z,5.93
2018-08-11T16:29:27.090Z,6.33
2018-08-11T16:31:56.880Z,11.37
2018-08-11T16:34:26.744Z,8.70
2018-08-11T16:36:56.545Z,20.87
2018-08-11T16:39:26.240Z,6.37
2018-08-11T16:41:56.212Z,5.90
2018-08-11T16:44:25.875Z,10.70
2018-08-11T16:46:55.566Z,8.03
2018-08-11T16:49:25.390Z,4.67
2018-08-11T16:51:55.305Z,6.03
2018-08-11T16:54:25.197Z,11.30
2018-08-11T16:56:56.561Z,6.67
2018-08-11T16:59:26.341Z,14.13
2018-08-11T17:01:56.322Z,17.17
2018-08-11T17:04:25.988Z,16.77
2018-08-11T17:06:55.618Z,5.90
2018-08-11T17:09:25.236Z,18.63
2018-08-11T17:11:55.066Z,22.50
2018-08-11T17:14:25.106Z,27.93
2018-08-11T17:16:54.930Z,20.90
2018-08-11T17:19:24.641Z,19.13
2018-08-11T17:21:54.257Z,15.83
2018-08-11T17:24:24.154Z,13.17
2018-08-11T17:26:53.774Z,23.60
2018-08-11T17:29:23.499Z,17.67
2018-08-11T17:31:53.163Z,28.43
2018-08-11T17:34:22.744Z,32.10
2018-08-11T17:36:52.545Z,17.87
2018-08-11T17:39:22.075Z,20.30
2018-08-11T17:41:51.861Z,21.50
2018-08-11T17:44:21.698Z,31.70
2018-08-11T17:46:51.404Z,33.93
2018-08-11T17:49:21.138Z,20.23
2018-08-11T17:51:50.763Z,21.67
2018-08-11T17:54:20.596Z,14.37
2018-08-11T17:56:50.424Z,11.97
2018-08-11T17:59:20.279Z,10.50
2018-08-11T18:01:50.260Z,17.57
2018-08-11T18:04:20.042Z,9.73
2018-08-11T18:06:49.715Z,13.73
2018-08-11T18:09:19.335Z,11.40
2018-08-11T18:11:49.125Z,7.93
2018-08-11T18:14:18.776Z,12.43
2018-08-11T18:16:48.465Z,13.73
2018-08-11T18:19:18.360Z,27.57
2018-08-11T18:21:48.274Z,27.70
2018-08-11T18:24:18.080Z,10.17
2018-08-11T18:26:47.777Z,7.60
2018-08-11T18:29:17.598Z,20.23
2018-08-11T18:31:47.288Z,17.77
2018-08-11T18:34:17.112Z,6.47
2018-08-11T18:36:46.896Z,11.17
2018-08-11T18:39:16.659Z,8.23
2018-08-11T18:41:46.609Z,12.93
2018-08-11T18:44:16.879Z,22.40
2018-08-11T18:46:47.005Z,36.40
2018-08-11T18:49:17.290Z,13.77
2018-08-11T18:51:47.904Z,9.80
2018-08-11T18:54:18.381Z,14.17
2018-08-11T18:56:48.864Z,26.90
2018-08-11T18:59:19.226Z,32.87
2018-08-11T19:01:49.449Z,42.90
2018-08-11T19:04:20.544Z,32.43
2018-08-11T19:06:51.679Z,46.37
2018-08-11T19:09:22.630Z,32.57
2018-08-11T19:11:53.589Z,16.33
2018-08-11T19:14:23.809Z,70.03
2018-08-11T19:16:55.342Z,42.57
2018-08-11T19:19:26.091Z,76.10
2018-08-11T19:21:56.354Z,31.20
2018-08-11T19:24:26.009Z,37.77
2018-08-11T19:26:55.941Z,13.87
2018-08-11T19:29:25.821Z,8.73
2018-08-11T19:31:55.581Z,11.43
2018-08-11T19:34:25.550Z,34.97
2018-08-11T19:36:55.222Z,26.33
2018-08-11T19:39:25.008Z,15.87
2018-08-11T19:41:54.938Z,24.40
2018-08-11T19:44:25.201Z,44.60
2018-08-11T19:46:55.034Z,46.23
2018-08-11T19:49:25.262Z,60.37
2018-08-11T19:51:54.981Z,95.60
2018-08-11T19:54:24.631Z,90.90
2018-08-11T19:56:57.430Z,95.13
2018-08-11T19:59:27.167Z,24.30
2018-08-11T20:01:56.828Z,22.03
2018-08-11T20:04:26.956Z,12.93
2018-08-11T20:06:56.662Z,13.57
2018-08-11T20:09:26.520Z,57.57
2018-08-11T20:11:56.648Z,54.87
2018-08-11T20:14:26.261Z,27.37
2018-08-11T20:16:56.101Z,51.90
2018-08-11T20:19:26.521Z,87.97
2018-08-11T20:21:56.310Z,84.37
2018-08-11T20:24:26.131Z,80.97
2018-08-11T20:26:56.050Z,29.60
2018-08-11T20:29:25.799Z,54.97
2018-08-11T20:31:55.564Z,24.83
2018-08-11T20:34:25.640Z,28.93
2018-08-11T20:36:55.579Z,33.07
2018-08-11T20:39:25.293Z,55.87
2018-08-11T20:41:54.976Z,33.33
2018-08-11T20:44:24.933Z,63.73
2018-08-11T20:46:54.577Z,70.73
2018-08-11T20:49:24.941Z,44.10
2018-08-11T20:51:54.664Z,33.73
2018-08-11T20:54:24.468Z,24.17
2018-08-11T20:56:54.076Z,10.03
2018-08-11T20:59:23.815Z,8.67
2018-08-11T21:01:53.550Z,16.20
2018-08-11T21:04:23.273Z,52.37
2018-08-11T21:06:53.121Z,26.17
2018-08-11T21:09:22.943Z,33.87
2018-08-11T21:11:52.903Z,70.50
2018-08-11T21:14:22.573Z,33.07
2018-08-11T21:16:52.485Z,64.40
2018-08-11T21:19:22.359Z,32.70
2018-08-11T21:21:52.146Z,33.40
2018-08-11T21:24:22.140Z,52.87
2018-08-11T21:26:52.082Z,50.00
2018-08-11T21:29:21.881Z,44.03
2018-08-11T21:31:51.712Z,42.23
2018-08-11T21:34:21.427Z,14.07
2018-08-11T21:36:51.373Z,13.20
2018-08-11T21:39:27.388Z,17.33
2018-08-11T21:41:57.550Z,8.20
2018-08-11T21:44:27.661Z,10.67
2018-08-11T21:46:57.445Z,12.00
2018-08-11T21:49:27.413Z,14.03
2018-08-11T21:51:57.058Z,14.63
2018-08-11T21:54:26.953Z,7.67
2018-08-11T21:56:56.708Z,12.53
2018-08-11T21:59:26.844Z,12.37
2018-08-11T22:01:56.641Z,13.73
2018-08-11T22:04:31.292Z,11.10
2018-08-11T22:07:01.454Z,10.30
2018-08-11T22:09:31.109Z,12.97
2018-08-11T22:12:00.926Z,5.30
2018-08-11T22:14:31.092Z,7.13
2018-08-11T22:17:01.437Z,8.23
2018-08-11T22:19:31.434Z,8.50
2018-08-11T22:22:01.232Z,10.17
2018-08-11T22:24:30.901Z,5.27
2018-08-11T22:27:00.850Z,6.63
2018-08-11T22:29:33.590Z,7.10
2018-08-11T22:32:03.314Z,9.83
2018-08-11T22:34:32.868Z,7.30
2018-08-11T22:37:02.878Z,8.63
2018-08-11T22:39:32.721Z,9.83
2018-08-11T22:42:03.124Z,11.60
2018-08-11T22:44:32.969Z,10.87
2018-08-11T22:47:02.864Z,28.10
2018-08-11T22:49:32.794Z,35.23
2018-08-11T22:52:03.162Z,13.90
2018-08-11T22:54:33.351Z,9.20
2018-08-11T22:57:03.013Z,16.83
2018-08-11T22:59:32.630Z,12.73
2018-08-11T23:02:02.402Z,8.10
2018-08-11T23:04:32.293Z,9.60
2018-08-11T23:07:01.905Z,8.60
2018-08-11T23:09:31.909Z,10.90
2018-08-11T23:12:01.706Z,10.73
2018-08-11T23:14:31.364Z,5.77
2018-08-11T23:17:01.256Z,6.37
2018-08-11T23:19:30.901Z,6.80
2018-08-11T23:22:00.831Z,6.53
2018-08-11T23:24:30.623Z,9.97
2018-08-11T23:27:00.530Z,5.90
2018-08-11T23:29:30.060Z,8.23
2018-08-11T23:32:00.152Z,7.87
2018-08-11T23:34:30.246Z,7.80
2018-08-11T23:36:59.998Z,9.50
2018-08-11T23:39:29.908Z,6.80
2018-08-11T23:41:59.478Z,5.10
2018-08-11T23:44:29.269Z,7.57
2018-08-11T23:46:58.888Z,4.77
2018-08-11T23:49:28.783Z,7.27
2018-08-11T23:51:58.825Z,5.80
2018-08-11T23:54:28.842Z,7.17
2018-08-11T23:56:58.502Z,9.03
2018-08-11T23:59:28.179Z,11.23
